createdAt,value
2023-01-03T00:00:12.178Z,100.00
2023-01-03T00:02:44.321Z,100.00
2023-01-03T00:05:16.376Z,100.00
2023-01-03T00:07:48.515Z,100.00
2023-01-03T00:10:20.667Z,100.00
2023-01-03T00:12:52.654Z,100.00
2023-01-03T00:15:24.625Z,100.00
2023-01-03T00:17:56.799Z,100.00
2023-01-03T00:20:28.886Z,100.00
2023-01-03T00:23:02.338Z,100.00
2023-01-03T00:25:34.528Z,100.00
2023-01-03T00:28:06.823Z,100.00
2023-01-03T00:30:38.827Z,100.00
2023-01-03T00:33:10.909Z,100.00
2023-01-03T00:35:42.980Z,100.00
2023-01-03T00:38:14.983Z,100.00
2023-01-03T00:40:47.103Z,100.00
2023-01-03T00:43:31.095Z,100.00
2023-01-03T00:46:04.289Z,100.00
2023-01-03T00:48:37.331Z,100.00
2023-01-03T00:51:16.476Z,100.00
2023-01-03T00:53:50.922Z,100.00
2023-01-03T00:56:27.018Z,100.00
2023-01-03T00:58:59.325Z,100.00
2023-01-03T01:01:46.816Z,100.00
2023-01-03T01:04:39.235Z,100.00
2023-01-03T01:07:11.344Z,100.00
2023-01-03T01:09:43.295Z,100.00
2023-01-03T01:12:15.292Z,100.00
2023-01-03T01:14:47.255Z,100.00
2023-01-03T01:17:22.559Z,100.00
2023-01-03T01:19:55.110Z,100.00
2023-01-03T01:22:27.089Z,100.00
2023-01-03T01:24:59.082Z,100.00
2023-01-03T01:27:31.797Z,100.00
2023-01-03T01:30:04.317Z,100.00
2023-01-03T01:32:36.381Z,100.00
2023-01-03T01:35:09.080Z,100.00
2023-01-03T01:37:41.247Z,100.00
2023-01-03T01:40:13.304Z,100.00
2023-01-03T01:43:03.706Z,100.00
2023-01-03T01:45:36.073Z,100.00
2023-01-03T01:48:14.495Z,100.00
2023-01-03T01:50:55.399Z,100.00
2023-01-03T01:53:34.890Z,100.00
2023-01-03T01:56:23.924Z,100.00
2023-01-03T01:58:56.536Z,100.00
2023-01-03T02:01:29.686Z,100.00
2023-01-03T02:04:30.570Z,100.00
2023-01-03T02:07:03.796Z,100.00
2023-01-03T02:09:35.761Z,100.00
2023-01-03T02:12:59.530Z,100.00
2023-01-03T02:16:13.199Z,100.00
2023-01-03T02:19:11.996Z,100.00
2023-01-03T02:22:14.269Z,100.00
2023-01-03T02:25:13.436Z,100.00
2023-01-03T02:28:25.509Z,100.00
2023-01-03T02:31:13.152Z,100.00
2023-01-03T02:34:04.104Z,100.00
2023-01-03T02:37:25.270Z,100.00
2023-01-03T02:40:20.924Z,100.00
2023-01-03T02:43:21.430Z,100.00
2023-01-03T02:46:09.346Z,100.00
2023-01-03T02:48:48.377Z,100.00
2023-01-03T02:51:55.248Z,100.00
2023-01-03T02:54:40.226Z,100.00
2023-01-03T02:57:20.570Z,100.00
2023-01-03T02:59:58.952Z,100.00
2023-01-03T03:02:33.267Z,100.00
2023-01-03T03:05:15.481Z,100.00
2023-01-03T03:07:47.498Z,100.00
2023-01-03T03:10:38.863Z,100.00
2023-01-03T03:13:25.881Z,100.00
2023-01-03T03:16:44.075Z,100.00
2023-01-03T03:19:43.099Z,100.00
2023-01-03T03:22:37.675Z,100.00
2023-01-03T03:25:45.373Z,100.00
2023-01-03T03:28:36.728Z,100.00
2023-01-03T03:31:24.017Z,100.00
2023-01-03T03:34:10.880Z,100.00
2023-01-03T03:36:58.054Z,100.00
2023-01-03T03:39:51.493Z,100.00
2023-01-03T03:42:59.629Z,100.00
2023-01-03T03:45:43.034Z,100.00
2023-01-03T03:49:26.942Z,100.00
2023-01-03T03:52:02.234Z,100.00
2023-01-03T03:54:40.303Z,100.00
2023-01-03T03:57:29.708Z,100.00
2023-01-03T04:00:14.181Z,100.00
2023-01-03T04:02:47.967Z,100.00
2023-01-03T04:05:23.860Z,100.00
2023-01-03T04:07:55.889Z,100.00
2023-01-03T04:10:32.590Z,100.00
2023-01-03T04:13:07.766Z,100.00
2023-01-03T04:15:40.419Z,100.00
2023-01-03T04:18:12.377Z,100.00
2023-01-03T04:20:44.849Z,100.00
2023-01-03T04:23:16.806Z,100.00
2023-01-03T04:25:49.324Z,100.00
2023-01-03T04:28:21.465Z,100.00
2023-01-03T04:30:53.477Z,100.00
2023-01-03T04:33:25.897Z,100.00
2023-01-03T04:35:57.850Z,100.00
2023-01-03T04:38:29.821Z,100.00
2023-01-03T04:41:09.011Z,100.00
2023-01-03T04:43:59.394Z,100.00
2023-01-03T04:46:34.875Z,100.00
2023-01-03T04:49:09.383Z,100.00
2023-01-03T04:51:41.654Z,100.00
2023-01-03T04:54:13.571Z,100.00
2023-01-03T04:56:45.914Z,100.00
2023-01-03T04:59:17.848Z,100.00
2023-01-03T05:01:52.621Z,100.00
2023-01-03T05:04:24.881Z,100.00
2023-01-03T05:06:56.985Z,100.00
2023-01-03T05:09:29.417Z,100.00
2023-01-03T05:12:01.390Z,100.00
2023-01-03T05:14:33.361Z,100.00
2023-01-03T05:17:05.434Z,100.00
2023-01-03T05:19:57.795Z,100.00
2023-01-03T05:22:48.151Z,100.00
2023-01-03T05:25:38.564Z,100.00
2023-01-03T05:28:16.924Z,100.00
2023-01-03T05:30:49.614Z,100.00
2023-01-03T05:33:21.554Z,100.00
2023-01-03T05:35:53.653Z,100.00
2023-01-03T05:38:26.111Z,100.00
2023-01-03T05:40:58.190Z,100.00
2023-01-03T05:43:30.267Z,100.00
2023-01-03T05:46:03.556Z,100.00
2023-01-03T05:48:36.180Z,100.00
2023-01-03T05:51:08.152Z,100.00
2023-01-03T05:53:40.507Z,100.00
2023-01-03T05:56:12.543Z,100.00
2023-01-03T05:58:44.902Z,100.00
2023-01-03T06:01:17.753Z,100.00
2023-01-03T06:03:49.809Z,100.00
2023-01-03T06:06:22.098Z,100.00
2023-01-03T06:08:54.889Z,100.00
2023-01-03T06:11:27.127Z,100.00
2023-01-03T06:13:59.152Z,100.00
2023-01-03T06:16:50.578Z,100.00
2023-01-03T06:19:22.637Z,100.00
2023-01-03T06:21:54.622Z,100.00
2023-01-03T06:24:26.657Z,100.00
2023-01-03T06:26:58.593Z,100.00
2023-01-03T06:29:31.050Z,100.00
2023-01-03T06:32:08.873Z,100.00
2023-01-03T06:34:41.653Z,100.00
2023-01-03T06:37:13.661Z,100.00
2023-01-03T06:39:45.905Z,100.00
2023-01-03T06:42:36.607Z,100.00
2023-01-03T06:45:29.371Z,100.00
2023-01-03T06:48:28.848Z,100.00
2023-01-03T06:51:19.178Z,100.00
2023-01-03T06:53:51.067Z,100.00
2023-01-03T06:56:23.293Z,100.00
2023-01-03T06:58:55.312Z,100.00
2023-01-03T07:01:27.702Z,100.00
2023-01-03T07:03:59.775Z,100.00
2023-01-03T07:06:31.833Z,100.00
2023-01-03T07:09:04.058Z,100.00
2023-01-03T07:11:37.211Z,100.00
2023-01-03T07:14:11.583Z,100.00
2023-01-03T07:16:46.619Z,100.00
2023-01-03T07:19:20.296Z,100.00
2023-01-03T07:21:52.369Z,100.00
2023-01-03T07:24:24.526Z,100.00
2023-01-03T07:26:56.516Z,100.00
2023-01-03T07:29:28.971Z,100.00
2023-01-03T07:32:01.073Z,100.00
2023-01-03T07:34:33.579Z,100.00
2023-01-03T07:37:05.573Z,100.00
2023-01-03T07:39:38.115Z,100.00
2023-01-03T07:42:32.964Z,100.00
2023-01-03T07:45:05.797Z,100.00
2023-01-03T07:47:38.098Z,100.00
2023-01-03T07:50:10.189Z,100.00
2023-01-03T07:52:42.327Z,100.00
2023-01-03T07:55:14.329Z,100.00
2023-01-03T07:57:46.840Z,100.00
2023-01-03T08:00:19.000Z,100.00
2023-01-03T08:02:56.341Z,100.00
2023-01-03T08:05:28.403Z,100.00
2023-01-03T08:08:00.494Z,100.00
2023-01-03T08:10:51.397Z,100.00
2023-01-03T08:13:25.256Z,100.00
2023-01-03T08:15:57.462Z,100.00
2023-01-03T08:18:29.588Z,100.00
2023-01-03T08:21:01.687Z,100.00
2023-01-03T08:23:34.460Z,100.00
2023-01-03T08:26:16.648Z,100.00
2023-01-03T08:28:48.678Z,100.00
2023-01-03T08:31:23.005Z,100.00
2023-01-03T08:34:10.315Z,100.00
2023-01-03T08:36:55.626Z,100.00
2023-01-03T08:39:34.882Z,100.00
2023-01-03T08:42:08.874Z,100.00
2023-01-03T08:44:44.944Z,100.00
2023-01-03T08:47:17.850Z,100.00
2023-01-03T08:49:50.045Z,100.00
2023-01-03T08:52:22.008Z,100.00
2023-01-03T08:54:54.011Z,100.00
2023-01-03T08:57:26.039Z,100.00
2023-01-03T08:59:58.146Z,100.00
2023-01-03T09:02:30.409Z,100.00
2023-01-03T09:05:02.716Z,100.00
2023-01-03T09:07:34.715Z,100.00
2023-01-03T09:10:07.319Z,100.00
2023-01-03T09:12:39.321Z,100.00
2023-01-03T09:15:12.098Z,100.00
2023-01-03T09:17:45.252Z,100.00
2023-01-03T09:20:18.874Z,100.00
2023-01-03T09:22:51.339Z,100.00
2023-01-03T09:25:23.536Z,100.00
2023-01-03T09:27:55.641Z,100.00
2023-01-03T09:30:27.634Z,100.00
2023-01-03T09:32:59.611Z,100.00
2023-01-03T09:35:32.817Z,100.00
2023-01-03T09:38:05.001Z,100.00
2023-01-03T09:40:44.324Z,100.00
2023-01-03T09:43:25.461Z,100.00
2023-01-03T09:46:00.022Z,100.00
2023-01-03T09:48:39.049Z,100.00
2023-01-03T09:51:44.156Z,100.00
2023-01-03T09:55:04.177Z,100.00
2023-01-03T09:57:56.011Z,100.00
2023-01-03T10:00:59.056Z,100.00
2023-01-03T10:04:11.787Z,100.00
2023-01-03T10:07:08.591Z,100.00
2023-01-03T10:09:54.465Z,100.00
2023-01-03T10:12:48.040Z,100.00
2023-01-03T10:15:55.094Z,100.00
2023-01-03T10:18:59.617Z,100.00
2023-01-03T10:22:05.175Z,100.00
2023-01-03T10:24:46.475Z,100.00
2023-01-03T10:27:25.365Z,100.00
2023-01-03T10:30:04.523Z,100.00
2023-01-03T10:33:14.098Z,100.00
2023-01-03T10:35:46.517Z,100.00
2023-01-03T10:38:20.540Z,100.00
2023-01-03T10:41:02.585Z,98.54
2023-01-03T10:43:45.767Z,98.44
2023-01-03T10:46:22.158Z,100.00
2023-01-03T10:52:11.022Z,100.00
2023-01-03T10:54:43.008Z,100.00
2023-01-03T10:57:48.428Z,100.00
2023-01-03T11:00:27.004Z,100.00
2023-01-03T11:03:16.663Z,99.08
2023-01-03T11:06:01.307Z,98.07
2023-01-03T11:08:47.374Z,99.17
2023-01-03T11:11:40.764Z,98.55
2023-01-03T11:14:26.196Z,98.87
2023-01-03T11:17:06.174Z,97.75
2023-01-03T11:19:38.279Z,96.04
2023-01-03T11:22:37.660Z,94.80
2023-01-03T11:25:24.672Z,94.84
2023-01-03T11:28:35.581Z,95.64
2023-01-03T11:31:20.383Z,97.66
2023-01-03T11:34:12.022Z,97.64
2023-01-03T11:36:59.607Z,98.14
2023-01-03T11:40:28.831Z,98.87
2023-01-03T11:43:25.765Z,98.82
2023-01-03T11:46:40.690Z,98.64
2023-01-03T11:49:47.860Z,97.37
2023-01-03T11:52:34.097Z,96.89
2023-01-03T11:55:44.740Z,97.55
2023-01-03T11:58:40.479Z,97.51
2023-01-03T12:01:18.168Z,97.77
2023-01-03T12:04:15.576Z,97.00
2023-01-03T12:07:47.149Z,97.60
2023-01-03T12:10:24.995Z,97.67
2023-01-03T12:13:14.539Z,97.58
2023-01-03T12:15:49.861Z,97.67
2023-01-03T12:18:39.979Z,97.61
2023-01-03T12:21:34.375Z,96.89
2023-01-03T12:24:29.908Z,96.37
2023-01-03T12:27:29.273Z,96.05
2023-01-03T12:30:29.556Z,95.78
2023-01-03T12:33:16.521Z,94.57
2023-01-03T12:35:58.118Z,94.75
2023-01-03T12:39:13.975Z,94.67
2023-01-03T12:42:20.549Z,93.05
2023-01-03T12:45:08.079Z,93.15
2023-01-03T12:47:48.655Z,93.25
2023-01-03T12:50:42.456Z,93.65
2023-01-03T12:53:50.780Z,92.84
2023-01-03T12:56:58.315Z,94.19
2023-01-03T13:00:10.898Z,95.34
2023-01-03T13:02:52.915Z,96.96
2023-01-03T13:05:56.981Z,96.87
2023-01-03T13:08:55.483Z,96.94
2023-01-03T13:11:37.606Z,97.24
2023-01-03T13:14:23.745Z,96.12
2023-01-03T13:16:56.938Z,96.80
2023-01-03T13:19:28.838Z,97.02
2023-01-03T13:22:47.078Z,97.64
2023-01-03T13:25:31.171Z,98.08
2023-01-03T13:28:20.349Z,97.94
2023-01-03T13:31:16.844Z,98.33
2023-01-03T13:33:55.686Z,98.75
2023-01-03T13:37:18.368Z,97.84
2023-01-03T13:39:50.383Z,98.12
2023-01-03T13:42:38.340Z,98.10
2023-01-03T13:45:17.802Z,98.12
2023-01-03T13:47:57.232Z,98.78
2023-01-03T13:50:35.483Z,99.11
2023-01-03T13:53:10.475Z,98.93
2023-01-03T13:55:54.495Z,99.44
2023-01-03T13:58:43.723Z,99.21
2023-01-03T14:01:40.253Z,99.53
2023-01-03T14:04:40.384Z,99.38
2023-01-03T14:08:01.479Z,99.37
2023-01-03T14:11:08.746Z,99.66
2023-01-03T14:13:47.434Z,99.31
2023-01-03T14:16:54.106Z,100.00
2023-01-03T14:19:34.023Z,99.26
2023-01-03T14:22:31.467Z,99.76
2023-01-03T14:25:05.235Z,99.96
2023-01-03T14:27:40.652Z,100.00
2023-01-03T14:30:24.673Z,99.84
2023-01-03T14:32:57.505Z,100.00
2023-01-03T14:35:38.068Z,100.00
2023-01-03T14:38:39.928Z,99.61
2023-01-03T14:41:27.010Z,99.92
2023-01-03T14:44:04.037Z,99.99
2023-01-03T14:46:37.471Z,100.00
2023-01-03T14:49:50.241Z,100.00
2023-01-03T14:52:30.105Z,100.00
2023-01-03T14:55:16.611Z,100.00
2023-01-03T14:57:50.528Z,100.00
2023-01-03T15:00:33.036Z,100.00
2023-01-03T15:03:11.054Z,100.00
2023-01-03T15:05:43.553Z,100.00
2023-01-03T15:08:15.527Z,100.00
2023-01-03T15:11:00.485Z,100.00
2023-01-03T15:13:56.693Z,100.00
2023-01-03T15:16:42.340Z,100.00
2023-01-03T15:19:26.682Z,100.00
2023-01-03T15:22:13.083Z,100.00
2023-01-03T15:24:48.178Z,100.00
2023-01-03T15:27:41.104Z,100.00
2023-01-03T15:30:22.994Z,100.00
2023-01-03T15:33:05.140Z,100.00
2023-01-03T15:35:42.937Z,100.00
2023-01-03T15:38:23.187Z,100.00
2023-01-03T15:40:55.211Z,100.00
2023-01-03T15:43:39.164Z,100.00
2023-01-03T15:46:20.320Z,100.00
2023-01-03T15:48:56.027Z,100.00
2023-01-03T15:51:28.101Z,100.00
2023-01-03T15:54:00.104Z,100.00
2023-01-03T15:56:35.791Z,100.00
2023-01-03T15:59:09.585Z,100.00
2023-01-03T16:01:42.348Z,100.00
2023-01-03T16:04:14.601Z,100.00
2023-01-03T16:06:47.150Z,100.00
2023-01-03T16:09:20.611Z,100.00
2023-01-03T16:11:57.593Z,100.00
2023-01-03T16:14:36.628Z,100.00
2023-01-03T16:17:13.685Z,100.00
2023-01-03T16:19:46.051Z,100.00
2023-01-03T16:25:06.232Z,100.00
2023-01-03T16:27:38.248Z,100.00
2023-01-03T16:30:13.055Z,100.00
2023-01-03T16:32:45.301Z,100.00
2023-01-03T16:35:19.591Z,100.00
2023-01-03T16:37:51.631Z,100.00
2023-01-03T16:40:23.704Z,100.00
2023-01-03T16:42:56.213Z,100.00
2023-01-03T16:45:28.426Z,100.00
2023-01-03T16:48:00.622Z,100.00
2023-01-03T16:50:39.024Z,100.00
2023-01-03T16:53:30.424Z,100.00
2023-01-03T16:56:03.963Z,100.00
2023-01-03T16:58:35.981Z,100.00
2023-01-03T17:01:08.496Z,100.00
2023-01-03T17:03:42.290Z,100.00
2023-01-03T17:06:38.403Z,100.00
2023-01-03T17:09:29.099Z,100.00
2023-01-03T17:12:01.044Z,100.00
2023-01-03T17:14:36.990Z,100.00
2023-01-03T17:17:22.290Z,100.00
2023-01-03T17:20:09.739Z,100.00
2023-01-03T17:22:50.967Z,100.00
2023-01-03T17:25:23.797Z,100.00
2023-01-03T17:28:10.811Z,100.00
2023-01-03T17:30:44.362Z,100.00
2023-01-03T17:33:16.553Z,100.00
2023-01-03T17:35:48.678Z,100.00
2023-01-03T17:38:26.175Z,100.00
2023-01-03T17:40:59.147Z,100.00
2023-01-03T17:43:32.475Z,100.00
2023-01-03T17:46:44.580Z,100.00
2023-01-03T17:49:27.436Z,100.00
2023-01-03T17:52:07.037Z,100.00
2023-01-03T17:54:41.573Z,100.00
2023-01-03T17:57:13.938Z,100.00
2023-01-03T17:59:45.920Z,100.00
2023-01-03T18:02:22.553Z,100.00
2023-01-03T18:07:47.873Z,100.00
2023-01-03T18:10:30.405Z,100.00
2023-01-03T18:13:02.575Z,100.00
2023-01-03T18:15:34.597Z,100.00
2023-01-03T18:18:14.258Z,100.00
2023-01-03T18:20:46.593Z,100.00
2023-01-03T18:23:35.744Z,100.00
2023-01-03T18:26:14.334Z,100.00
2023-01-03T18:28:46.386Z,100.00
2023-01-03T18:31:19.946Z,100.00
2023-01-03T18:33:52.091Z,100.00
2023-01-03T18:36:28.627Z,100.00
2023-01-03T18:39:08.284Z,100.00
2023-01-03T18:41:41.352Z,100.00
2023-01-03T18:44:22.332Z,100.00
2023-01-03T18:46:54.461Z,100.00
2023-01-03T18:49:26.470Z,100.00
2023-01-03T18:51:58.475Z,100.00
2023-01-03T18:54:30.694Z,100.00
2023-01-03T18:57:02.680Z,100.00
2023-01-03T18:59:35.296Z,100.00
2023-01-03T19:02:16.166Z,100.00
2023-01-03T19:04:51.650Z,100.00
2023-01-03T19:07:34.374Z,100.00
2023-01-03T19:10:25.497Z,100.00
2023-01-03T19:12:59.124Z,100.00
2023-01-03T19:15:31.238Z,100.00
2023-01-03T19:18:04.193Z,100.00
2023-01-03T19:20:36.551Z,100.00
2023-01-03T19:23:08.824Z,100.00
2023-01-03T19:25:41.485Z,100.00
2023-01-03T19:28:13.679Z,100.00
2023-01-03T19:30:46.749Z,100.00
2023-01-03T19:33:19.609Z,100.00
2023-01-03T19:35:51.880Z,100.00
2023-01-03T19:38:23.980Z,100.00
2023-01-03T19:40:56.085Z,100.00
2023-01-03T19:43:28.717Z,100.00
2023-01-03T19:46:00.887Z,100.00
2023-01-03T19:48:33.016Z,100.00
2023-01-03T19:51:05.743Z,100.00
2023-01-03T19:53:38.967Z,100.00
2023-01-03T19:56:22.875Z,100.00
2023-01-03T19:59:00.947Z,100.00
2023-01-03T20:01:58.212Z,100.00
2023-01-03T20:04:33.550Z,100.00
2023-01-03T20:07:14.766Z,100.00
2023-01-03T20:09:46.764Z,100.00
2023-01-03T20:12:25.418Z,100.00
2023-01-03T20:15:06.558Z,100.00
2023-01-03T20:17:39.403Z,100.00
2023-01-03T20:20:13.847Z,100.00
2023-01-03T20:23:07.013Z,100.00
2023-01-03T20:25:39.418Z,100.00
2023-01-03T20:28:29.264Z,100.00
2023-01-03T20:31:04.982Z,100.00
2023-01-03T20:33:37.031Z,100.00
2023-01-03T20:36:23.103Z,100.00
2023-01-03T20:38:56.412Z,100.00
2023-01-03T20:41:37.578Z,100.00
2023-01-03T20:44:10.379Z,99.28
2023-01-03T20:46:42.578Z,99.03
2023-01-03T20:49:26.639Z,99.43
2023-01-03T20:52:03.176Z,98.65
2023-01-03T20:54:35.206Z,98.09
2023-01-03T20:57:18.806Z,98.44
2023-01-03T20:59:50.887Z,98.46
2023-01-03T21:02:29.241Z,98.07
2023-01-03T21:05:01.425Z,97.80
2023-01-03T21:07:51.812Z,98.26
2023-01-03T21:10:26.555Z,98.42
2023-01-03T21:12:58.826Z,97.78
2023-01-03T21:15:31.013Z,97.66
2023-01-03T21:18:10.592Z,97.28
2023-01-03T21:20:43.298Z,97.30
2023-01-03T21:23:21.239Z,96.51
2023-01-03T21:25:55.492Z,96.04
2023-01-03T21:28:27.460Z,96.00
2023-01-03T21:31:04.970Z,95.40
2023-01-03T21:33:37.516Z,94.95
2023-01-03T21:36:19.241Z,94.37
2023-01-03T21:38:56.367Z,94.59
2023-01-03T21:41:34.674Z,94.37
2023-01-03T21:44:07.906Z,94.13
2023-01-03T21:46:43.416Z,93.31
2023-01-03T21:49:15.620Z,93.34
2023-01-03T21:51:47.613Z,93.33
2023-01-03T21:54:19.604Z,93.29
2023-01-03T21:56:51.561Z,92.67
2023-01-03T21:59:23.682Z,92.51
2023-01-03T22:02:14.080Z,92.78
2023-01-03T22:04:46.380Z,92.75
2023-01-03T22:07:19.898Z,93.08
2023-01-03T22:10:10.830Z,92.79
2023-01-03T22:13:05.074Z,93.08
2023-01-03T22:15:39.189Z,93.26
2023-01-03T22:18:13.261Z,92.68
2023-01-03T22:20:45.255Z,92.70
2023-01-03T22:23:19.197Z,92.80
2023-01-03T22:25:51.175Z,92.86
2023-01-03T22:28:25.222Z,93.08
2023-01-03T22:30:57.751Z,93.20
2023-01-03T22:33:30.031Z,92.94
2023-01-03T22:36:02.038Z,93.00
2023-01-03T22:38:34.844Z,92.74
2023-01-03T22:41:12.936Z,92.98
2023-01-03T22:43:45.880Z,92.95
2023-01-03T22:46:18.005Z,93.00
2023-01-03T22:48:50.165Z,93.49
2023-01-03T22:51:22.287Z,93.46
2023-01-03T22:53:54.563Z,93.31
2023-01-03T22:56:26.634Z,93.26
2023-01-03T22:58:58.753Z,93.94
2023-01-03T23:01:31.695Z,93.55
2023-01-03T23:04:06.814Z,93.31
2023-01-03T23:06:38.875Z,93.05
2023-01-03T23:09:12.165Z,93.48
2023-01-03T23:12:03.134Z,93.06
2023-01-03T23:14:35.343Z,92.09
2023-01-03T23:17:26.231Z,92.86
2023-01-03T23:19:58.308Z,92.11
2023-01-03T23:22:30.365Z,91.72
2023-01-03T23:25:02.347Z,91.73
2023-01-03T23:27:34.863Z,92.12
2023-01-03T23:30:07.799Z,91.40
2023-01-03T23:32:39.941Z,90.83
2023-01-03T23:35:12.103Z,90.54
2023-01-03T23:37:46.617Z,90.44
2023-01-03T23:40:18.593Z,90.27
2023-01-03T23:42:50.717Z,90.99
2023-01-03T23:45:22.688Z,90.76
2023-01-03T23:47:55.304Z,90.63
2023-01-03T23:50:27.549Z,90.89
2023-01-03T23:52:59.757Z,91.09
2023-01-03T23:55:31.841Z,90.77
2023-01-03T23:58:03.852Z,90.46
